Time;durP1;ratioP1;P1;durP2;ratioP2;P2;SDS_P1;SDS_P2;PMS_P1;PMS_P2;Temp;Humidity;BMP_temperature;BMP_pressure;BME280_temperature;BME280_humidity;BME280_pressure;Samples;Min_cycle;Max_cycle;Signal;HPM_P1;HPM_P2
2021/09/16 00:01:20;;;;;;;1.77;1.55;;;19.40;51.60;;;;;;4899568;29;20168;-80
2021/09/16 00:03:45;;;;;;;1.50;1.40;;;19.40;51.70;;;;;;4901576;29;20225;-80
2021/09/16 00:06:11;;;;;;;1.98;1.50;;;19.40;51.70;;;;;;4903132;29;20168;-80
2021/09/16 00:08:37;;;;;;;2.40;1.40;;;19.40;51.70;;;;;;4903048;29;20614;-79
2021/09/16 00:11:03;;;;;;;1.40;1.30;;;19.40;51.70;;;;;;4917756;29;20187;-80
2021/09/16 00:13:29;;;;;;;2.45;1.40;;;19.40;51.80;;;;;;4902210;29;20174;-79
2021/09/16 00:15:55;;;;;;;1.50;1.40;;;19.40;51.80;;;;;;4901722;29;20242;-80
2021/09/16 00:18:21;;;;;;;1.60;1.20;;;19.40;51.80;;;;;;4901858;29;20156;-80
2021/09/16 00:20:48;;;;;;;1.48;1.20;;;19.40;51.80;;;;;;4901840;29;20215;-80
2021/09/16 00:23:14;;;;;;;1.60;1.50;;;19.40;51.70;;;;;;4901744;29;20170;-79
2021/09/16 00:25:40;;;;;;;2.13;1.40;;;19.40;51.80;;;;;;4901914;29;20168;-79
2021/09/16 00:28:05;;;;;;;1.70;1.58;;;19.40;51.80;;;;;;4901626;29;20187;-80
2021/09/16 00:30:31;;;;;;;1.50;1.40;;;19.40;51.80;;;;;;4902032;29;20163;-80
2021/09/16 00:32:57;;;;;;;1.40;1.30;;;19.40;51.90;;;;;;4901450;29;20179;-79
2021/09/16 00:35:23;;;;;;;1.55;1.40;;;19.40;51.90;;;;;;4902512;29;20160;-79
2021/09/16 00:37:49;;;;;;;1.33;1.20;;;19.40;51.90;;;;;;4903350;29;20171;-79
2021/09/16 00:40:16;;;;;;;1.83;1.67;;;19.40;51.90;;;;;;4902887;29;20167;-79
2021/09/16 00:42:43;;;;;;;1.65;1.42;;;19.40;51.80;;;;;;4903646;29;20193;-80
2021/09/16 00:45:10;;;;;;;1.25;1.15;;;19.40;51.90;;;;;;4902292;29;20163;-80
2021/09/16 00:47:44;;;;;;;3.55;1.40;;;19.30;51.90;;;;;;4900914;29;20203;-80
2021/09/16 00:50:12;;;;;;;1.40;1.30;;;19.40;51.90;;;;;;4901104;29;20210;-79
2021/09/16 00:52:38;;;;;;;2.40;1.27;;;19.40;52.00;;;;;;4902291;29;20167;-79
2021/09/16 00:55:04;;;;;;;1.65;1.55;;;19.40;52.00;;;;;;4901119;29;20167;-80
2021/09/16 00:57:30;;;;;;;2.47;1.55;;;19.40;52.00;;;;;;4902678;29;20195;-80
2021/09/16 00:59:56;;;;;;;1.30;1.20;;;19.40;51.90;;;;;;4902115;29;20163;-79
2021/09/16 01:02:22;;;;;;;2.88;1.33;;;19.40;52.00;;;;;;4902445;29;20510;-80
2021/09/16 01:04:47;;;;;;;1.63;1.33;;;19.30;51.90;;;;;;4902148;29;20614;-79
2021/09/16 01:07:14;;;;;;;1.48;1.35;;;19.40;52.00;;;;;;4901167;29;20201;-80
2021/09/16 01:09:42;;;;;;;2.70;1.27;;;19.30;52.00;;;;;;4885629;29;20630;-79
2021/09/16 01:12:07;;;;;;;1.65;1.30;;;19.30;52.00;;;;;;4900930;29;20160;-80
2021/09/16 01:14:33;;;;;;;2.83;1.40;;;19.30;52.00;;;;;;4900968;29;20265;-80
2021/09/16 01:17:00;;;;;;;2.30;1.42;;;19.30;52.00;;;;;;4902641;29;20623;-79
2021/09/16 01:19:26;;;;;;;1.77;1.55;;;19.30;52.00;;;;;;4900860;29;20610;-79
2021/09/16 01:21:52;;;;;;;1.42;1.33;;;19.30;52.00;;;;;;4902641;29;20179;-80
2021/09/16 01:24:17;;;;;;;1.60;1.50;;;19.30;52.00;;;;;;4902520;29;20229;-79
2021/09/16 01:26:43;;;;;;;2.08;1.20;;;19.30;52.00;;;;;;4902297;29;20199;-80
2021/09/16 01:29:11;;;;;;;1.58;1.30;;;19.30;52.00;;;;;;4900964;29;20251;-80
2021/09/16 01:31:41;;;;;;;1.58;1.40;;;19.30;52.10;;;;;;4901386;29;20148;-79
2021/09/16 01:34:08;;;;;;;2.92;1.40;;;19.40;52.10;;;;;;4900622;29;20168;-80
2021/09/16 01:36:34;;;;;;;1.30;1.20;;;19.30;52.10;;;;;;4884916;29;20178;-79
2021/09/16 01:39:04;;;;;;;2.08;1.40;;;19.30;52.10;;;;;;4900940;29;20278;-79
2021/09/16 01:41:31;;;;;;;1.60;1.50;;;19.30;52.10;;;;;;4902469;29;20167;-80
2021/09/16 01:43:57;;;;;;;2.08;1.50;;;19.30;52.10;;;;;;4902132;29;20171;-79
2021/09/16 01:46:22;;;;;;;3.60;1.60;;;19.30;52.10;;;;;;4901892;29;20202;-79
2021/09/16 01:48:48;;;;;;;2.33;1.42;;;19.30;52.10;;;;;;4906772;29;20689;-79
2021/09/16 01:51:13;;;;;;;1.42;1.25;;;19.30;52.20;;;;;;4903550;29;20558;-80
2021/09/16 01:53:39;;;;;;;1.52;1.42;;;19.30;52.10;;;;;;4920404;29;20163;-80
2021/09/16 01:56:05;;;;;;;1.77;1.38;;;19.30;52.10;;;;;;4920231;29;20630;-80
2021/09/16 01:58:31;;;;;;;2.10;1.33;;;19.30;52.20;;;;;;4902934;29;20210;-79
2021/09/16 02:00:58;;;;;;;1.52;1.30;;;19.30;52.30;;;;;;4919880;29;20246;-79
2021/09/16 02:03:23;;;;;;;1.55;1.40;;;19.30;52.30;;;;;;4902741;29;20191;-79
2021/09/16 02:05:49;;;;;;;1.35;1.20;;;19.30;52.30;;;;;;4902661;29;20198;-80
2021/09/16 02:08:15;;;;;;;1.60;1.50;;;19.30;52.30;;;;;;4903044;29;20205;-80
2021/09/16 02:10:40;;;;;;;1.60;1.40;;;19.30;52.30;;;;;;4919832;29;20185;-80
2021/09/16 02:13:06;;;;;;;1.77;1.30;;;19.30;52.30;;;;;;4903022;29;20162;-79
2021/09/16 02:15:32;;;;;;;1.45;1.35;;;19.30;52.30;;;;;;4920222;29;20174;-79
2021/09/16 02:17:58;;;;;;;1.30;1.20;;;19.30;52.30;;;;;;4919808;29;20638;-79
2021/09/16 02:20:24;;;;;;;2.00;1.23;;;19.30;52.40;;;;;;4902644;29;20159;-80
2021/09/16 02:22:50;;;;;;;1.63;1.30;;;19.20;52.30;;;;;;4903514;29;20181;-79
2021/09/16 02:25:15;;;;;;;1.60;1.40;;;19.20;52.40;;;;;;4902607;29;20155;-79
2021/09/16 02:27:41;;;;;;;2.85;1.20;;;19.30;52.50;;;;;;4887228;29;20198;-79
2021/09/16 02:30:07;;;;;;;2.42;1.33;;;19.20;52.40;;;;;;4919666;29;20154;-79
2021/09/16 02:32:33;;;;;;;1.55;1.45;;;19.20;52.50;;;;;;4919739;29;20622;-79
2021/09/16 02:34:59;;;;;;;2.83;1.38;;;19.20;52.50;;;;;;4919200;29;20169;-80
2021/09/16 02:37:24;;;;;;;1.67;1.20;;;19.20;52.50;;;;;;4919298;29;20574;-79
2021/09/16 02:39:50;;;;;;;1.65;1.33;;;19.30;52.50;;;;;;4919118;29;20162;-80
2021/09/16 02:42:15;;;;;;;2.22;1.23;;;19.20;52.50;;;;;;4902436;29;20520;-80
2021/09/16 02:44:41;;;;;;;1.55;1.40;;;19.20;52.50;;;;;;4919054;29;20266;-79
2021/09/16 02:47:07;;;;;;;2.70;1.30;;;19.30;52.50;;;;;;4919318;29;20221;-79
2021/09/16 02:49:32;;;;;;;1.40;1.30;;;19.20;52.50;;;;;;4898435;29;20595;-80
2021/09/16 02:51:58;;;;;;;2.50;1.48;;;19.20;52.50;;;;;;4898785;29;20220;-80
2021/09/16 02:54:24;;;;;;;1.33;1.23;;;19.20;52.60;;;;;;4898729;29;20262;-79
2021/09/16 02:56:49;;;;;;;1.05;1.05;;;19.20;52.60;;;;;;4899895;29;20231;-79
2021/09/16 02:59:16;;;;;;;1.40;1.20;;;19.20;52.60;;;;;;4883222;29;20178;-79
2021/09/16 03:01:41;;;;;;;1.85;1.30;;;19.20;52.60;;;;;;4883413;29;20196;-79
2021/09/16 03:04:07;;;;;;;1.95;1.33;;;19.20;52.60;;;;;;4900284;29;20618;-80
2021/09/16 03:06:32;;;;;;;1.20;1.10;;;19.20;52.60;;;;;;4900169;29;20217;-79
2021/09/16 03:08:58;;;;;;;1.63;1.30;;;19.20;52.60;;;;;;4900020;29;20250;-80
2021/09/16 03:11:24;;;;;;;1.70;1.42;;;19.20;52.60;;;;;;4899745;29;20187;-79
2021/09/16 03:13:49;;;;;;;1.40;1.15;;;19.20;52.60;;;;;;4898407;29;20164;-80
2021/09/16 03:16:15;;;;;;;1.50;1.27;;;19.20;52.60;;;;;;4899844;29;20174;-79
2021/09/16 03:18:41;;;;;;;1.83;1.63;;;19.20;52.60;;;;;;4898651;29;20159;-79
2021/09/16 03:21:06;;;;;;;1.40;1.30;;;19.30;52.60;;;;;;4898323;29;20163;-79
2021/09/16 03:23:32;;;;;;;1.20;1.10;;;19.20;52.60;;;;;;4899297;29;20644;-79
2021/09/16 03:25:58;;;;;;;1.50;1.40;;;19.20;52.60;;;;;;4898644;29;20167;-80
2021/09/16 03:28:23;;;;;;;1.25;1.15;;;19.20;52.50;;;;;;4899679;29;20222;-80
2021/09/16 03:30:49;;;;;;;1.83;1.20;;;19.20;52.50;;;;;;4899537;29;20190;-80
2021/09/16 03:33:15;;;;;;;1.75;1.33;;;19.20;52.50;;;;;;4898104;29;20168;-80
2021/09/16 03:35:40;;;;;;;1.25;1.15;;;19.10;52.50;;;;;;4897999;29;20544;-79
2021/09/16 03:38:06;;;;;;;1.45;1.20;;;19.10;52.50;;;;;;4899384;29;20160;-80
2021/09/16 03:40:32;;;;;;;1.65;1.38;;;19.20;52.40;;;;;;4898075;29;20642;-80
2021/09/16 03:42:57;;;;;;;1.77;1.42;;;19.10;52.30;;;;;;4898164;29;20169;-79
2021/09/16 03:45:23;;;;;;;1.60;1.40;;;19.10;52.20;;;;;;4899287;29;20155;-79
2021/09/16 03:47:49;;;;;;;1.52;1.38;;;19.20;52.30;;;;;;4882333;29;20295;-79
2021/09/16 03:50:16;;;;;;;1.45;1.35;;;19.20;52.40;;;;;;4897831;29;20231;-78
2021/09/16 03:52:42;;;;;;;1.67;1.10;;;19.20;52.30;;;;;;4899481;29;20179;-79
2021/09/16 03:55:08;;;;;;;1.48;1.38;;;19.20;52.30;;;;;;4899405;29;20160;-79
2021/09/16 03:57:33;;;;;;;1.30;1.17;;;19.10;52.30;;;;;;4898503;29;20205;-79
2021/09/16 03:59:59;;;;;;;1.45;1.33;;;19.20;52.30;;;;;;4899179;29;20687;-79
2021/09/16 04:02:25;;;;;;;2.95;1.23;;;19.20;52.20;;;;;;4900034;29;20529;-80
2021/09/16 04:04:51;;;;;;;2.25;1.30;;;19.20;52.20;;;;;;4900051;29;20196;-79
2021/09/16 04:07:17;;;;;;;1.80;1.45;;;19.20;52.20;;;;;;4899952;29;20603;-79
2021/09/16 04:09:42;;;;;;;1.77;1.48;;;19.20;52.30;;;;;;4899403;29;20238;-79
2021/09/16 04:12:08;;;;;;;2.38;1.38;;;19.10;52.20;;;;;;4899218;29;20632;-79
2021/09/16 04:14:34;;;;;;;1.85;1.27;;;19.10;52.20;;;;;;4899109;29;20623;-80
2021/09/16 04:16:59;;;;;;;1.35;1.10;;;19.10;52.10;;;;;;4899442;29;20304;-79
2021/09/16 04:19:25;;;;;;;2.03;1.20;;;19.10;52.70;;;;;;4899351;29;20492;-80
2021/09/16 04:21:51;;;;;;;1.63;1.20;;;19.20;52.20;;;;;;4897660;29;20220;-79
2021/09/16 04:24:16;;;;;;;1.55;1.27;;;19.20;52.20;;;;;;4899081;29;20170;-79
2021/09/16 04:26:44;;;;;;;1.40;1.30;;;19.10;52.10;;;;;;4898023;29;20203;-80
2021/09/16 04:29:12;;;;;;;1.50;1.38;;;19.10;52.00;;;;;;4898898;29;20540;-80
2021/09/16 04:31:39;;;;;;;1.42;1.33;;;19.20;52.10;;;;;;4899442;29;20202;-79
2021/09/16 04:34:05;;;;;;;1.85;1.42;;;19.10;52.00;;;;;;4899245;29;20529;-79
2021/09/16 04:36:31;;;;;;;1.40;1.30;;;19.10;52.10;;;;;;4899097;29;20623;-79
2021/09/16 04:38:57;;;;;;;1.30;1.20;;;19.10;52.00;;;;;;4898604;29;20178;-80
2021/09/16 04:41:22;;;;;;;1.60;1.50;;;19.10;51.70;;;;;;4899077;29;20326;-79
2021/09/16 04:43:48;;;;;;;1.30;1.20;;;19.20;51.50;;;;;;4899612;29;20630;-79
2021/09/16 04:46:14;;;;;;;1.88;1.40;;;19.10;51.70;;;;;;4898723;29;20219;-80
2021/09/16 04:48:40;;;;;;;1.50;1.40;;;19.20;51.90;;;;;;4884345;29;20219;-80
2021/09/16 04:51:05;;;;;;;1.75;1.50;;;19.10;51.80;;;;;;4904067;29;20246;-80
2021/09/16 04:53:31;;;;;;;1.45;1.35;;;19.10;51.90;;;;;;4916591;29;20653;-79
2021/09/16 04:55:56;;;;;;;2.35;1.25;;;19.10;51.90;;;;;;4923191;29;20163;-80
2021/09/16 04:58:22;;;;;;;2.75;1.40;;;19.10;51.90;;;;;;4923267;29;20755;-80
2021/09/16 05:00:48;;;;;;;1.50;1.30;;;19.10;52.00;;;;;;4921483;29;20558;-79
2021/09/16 05:03:14;;;;;;;1.27;1.17;;;19.10;52.00;;;;;;4922324;29;20271;-79
2021/09/16 05:05:40;;;;;;;1.70;1.40;;;19.10;52.10;;;;;;4913018;29;20230;-80
2021/09/16 05:08:06;;;;;;;1.50;1.40;;;19.10;52.10;;;;;;4902557;29;20207;-79
2021/09/16 05:10:32;;;;;;;1.73;1.50;;;19.00;52.00;;;;;;4904188;29;20235;-79
2021/09/16 05:12:57;;;;;;;1.60;1.50;;;19.00;52.10;;;;;;4904044;29;20163;-79
2021/09/16 05:15:23;;;;;;;1.50;1.40;;;19.10;52.10;;;;;;4902576;29;20163;-79
2021/09/16 05:17:49;;;;;;;1.58;1.45;;;19.10;52.20;;;;;;4903130;29;20648;-79
2021/09/16 05:20:14;;;;;;;2.10;1.60;;;19.10;52.20;;;;;;4921777;29;20694;-79
2021/09/16 05:22:40;;;;;;;1.40;1.30;;;19.10;52.20;;;;;;4923021;29;20538;-79
2021/09/16 05:25:06;;;;;;;1.70;1.40;;;19.00;51.90;;;;;;4922590;29;20171;-79
2021/09/16 05:27:31;;;;;;;1.55;1.30;;;19.10;52.10;;;;;;4923039;29;20222;-79
2021/09/16 05:29:57;;;;;;;1.50;1.30;;;19.10;52.30;;;;;;4922724;29;20253;-79
2021/09/16 05:32:27;;;;;;;1.55;1.45;;;19.00;52.20;;;;;;4921196;29;20527;-80
2021/09/16 05:34:54;;;;;;;1.58;1.48;;;19.00;52.10;;;;;;4906765;29;20176;-79
2021/09/16 05:37:19;;;;;;;2.25;1.77;;;19.00;52.30;;;;;;4902730;29;20183;-80
2021/09/16 05:39:46;;;;;;;1.75;1.40;;;19.00;51.90;;;;;;4902226;29;20183;-80
2021/09/16 05:42:11;;;;;;;1.83;1.50;;;19.00;52.20;;;;;;4902550;29;20159;-80
2021/09/16 05:44:37;;;;;;;1.50;1.40;;;19.00;52.20;;;;;;4903024;29;20311;-80
2021/09/16 05:47:03;;;;;;;1.50;1.40;;;19.00;52.10;;;;;;4902998;29;20191;-80
2021/09/16 05:49:29;;;;;;;1.60;1.50;;;19.00;52.20;;;;;;4892290;29;20754;-80
2021/09/16 05:51:56;;;;;;;1.83;1.67;;;19.00;52.20;;;;;;4884593;29;20252;-80
2021/09/16 05:54:22;;;;;;;1.58;1.38;;;19.00;52.20;;;;;;4884434;29;20156;-80
2021/09/16 05:56:48;;;;;;;1.85;1.65;;;19.10;52.30;;;;;;4884163;29;20725;-80
2021/09/16 05:59:14;;;;;;;1.85;1.70;;;19.00;52.20;;;;;;4881875;29;20243;-80
2021/09/16 06:01:40;;;;;;;1.67;1.58;;;19.00;52.30;;;;;;4881977;29;20278;-80
2021/09/16 06:04:05;;;;;;;1.90;1.70;;;19.00;52.30;;;;;;4882662;29;20638;-81
2021/09/16 06:06:31;;;;;;;1.30;1.20;;;19.00;52.30;;;;;;4882135;29;20171;-80
2021/09/16 06:08:57;;;;;;;1.65;1.48;;;19.00;52.10;;;;;;4865295;29;20165;-80
2021/09/16 06:11:22;;;;;;;1.98;1.80;;;19.00;52.30;;;;;;4865167;29;20628;-80
2021/09/16 06:13:48;;;;;;;1.60;1.50;;;19.00;52.40;;;;;;4865067;29;20524;-80
2021/09/16 06:16:14;;;;;;;1.70;1.60;;;19.00;52.10;;;;;;4881965;29;20184;-80
2021/09/16 06:18:39;;;;;;;2.00;1.60;;;19.00;52.40;;;;;;4882162;29;20161;-80
2021/09/16 06:21:05;;;;;;;1.80;1.60;;;19.00;52.20;;;;;;4865265;29;20167;-80
2021/09/16 06:23:31;;;;;;;1.70;1.40;;;19.00;52.40;;;;;;4881896;29;20207;-80
2021/09/16 06:25:57;;;;;;;1.60;1.50;;;19.00;52.10;;;;;;4865531;29;20252;-80
2021/09/16 06:28:22;;;;;;;1.83;1.60;;;19.00;52.40;;;;;;4882142;29;20659;-80
2021/09/16 06:30:48;;;;;;;1.70;1.60;;;19.00;52.40;;;;;;4882088;29;20182;-80
2021/09/16 06:33:14;;;;;;;1.60;1.50;;;19.00;52.40;;;;;;4867504;29;20195;-80
2021/09/16 06:35:41;;;;;;;1.73;1.45;;;19.00;52.60;;;;;;4865213;29;20632;-80
2021/09/16 06:38:07;;;;;;;1.88;1.60;;;19.00;52.50;;;;;;4882962;29;20169;-80
2021/09/16 06:40:32;;;;;;;1.70;1.60;;;19.00;52.70;;;;;;4881292;29;20256;-80
2021/09/16 06:42:58;;;;;;;1.80;1.70;;;19.00;52.70;;;;;;4881149;29;20181;-80
2021/09/16 06:45:24;;;;;;;2.10;1.70;;;19.00;52.80;;;;;;4881106;29;20538;-80
2021/09/16 06:47:50;;;;;;;2.47;2.00;;;19.00;52.70;;;;;;4881061;29;20611;-80
2021/09/16 06:50:16;;;;;;;1.90;1.70;;;19.00;52.60;;;;;;4881445;29;20270;-80
2021/09/16 06:52:41;;;;;;;1.77;1.60;;;18.90;52.80;;;;;;4864439;29;20196;-80
2021/09/16 06:55:07;;;;;;;2.55;1.90;;;19.00;52.80;;;;;;4864515;29;20190;-80
2021/09/16 06:57:33;;;;;;;2.00;1.80;;;19.00;52.80;;;;;;4890485;29;20183;-80
2021/09/16 06:59:59;;;;;;;1.92;1.60;;;19.00;52.90;;;;;;4878284;29;20544;-80
2021/09/16 07:02:25;;;;;;;1.83;1.63;;;19.00;53.00;;;;;;4900495;29;20374;-80
2021/09/16 07:04:51;;;;;;;2.00;1.80;;;19.00;52.90;;;;;;4900060;29;20246;-80
2021/09/16 07:07:17;;;;;;;2.10;1.90;;;19.00;52.80;;;;;;4899871;29;20231;-80
2021/09/16 07:09:43;;;;;;;1.88;1.77;;;19.00;53.00;;;;;;4899724;29;20151;-80
2021/09/16 07:12:09;;;;;;;2.38;1.95;;;19.00;53.00;;;;;;4899555;29;20197;-79
2021/09/16 07:14:34;;;;;;;2.25;2.00;;;19.00;53.00;;;;;;4899648;29;20167;-81
2021/09/16 07:17:00;;;;;;;2.22;1.90;;;18.90;53.00;;;;;;4883016;29;20183;-80
2021/09/16 07:19:26;;;;;;;1.60;1.50;;;19.00;53.00;;;;;;4882698;29;20168;-80
2021/09/16 07:21:52;;;;;;;1.98;1.80;;;19.00;53.00;;;;;;4882762;29;20225;-80
2021/09/16 07:24:18;;;;;;;2.05;1.90;;;19.00;53.20;;;;;;4882932;29;20167;-80
2021/09/16 07:26:50;;;;;;;1.92;1.73;;;18.90;52.90;;;;;;4882709;29;20211;-80
2021/09/16 07:29:17;;;;;;;2.28;1.67;;;19.00;53.10;;;;;;4900122;29;20246;-80
2021/09/16 07:31:43;;;;;;;3.03;2.00;;;19.00;53.20;;;;;;4899414;29;20163;-79
2021/09/16 07:34:09;;;;;;;2.20;2.00;;;19.00;53.20;;;;;;4899853;29;20163;-80
2021/09/16 07:36:34;;;;;;;2.10;1.90;;;18.90;53.30;;;;;;4899867;29;20163;-79
2021/09/16 07:39:00;;;;;;;2.00;1.63;;;18.90;53.30;;;;;;4899536;29;20189;-80
2021/09/16 07:41:26;;;;;;;2.17;1.98;;;18.90;53.30;;;;;;4900015;29;20187;-80
2021/09/16 07:43:51;;;;;;;2.10;1.90;;;19.00;53.30;;;;;;4899951;29;20174;-80
2021/09/16 07:46:17;;;;;;;2.58;2.08;;;19.00;53.20;;;;;;4899809;29;20168;-79
2021/09/16 07:48:43;;;;;;;2.05;1.85;;;19.00;53.30;;;;;;4904106;29;20234;-79
2021/09/16 07:51:08;;;;;;;1.92;1.75;;;19.00;53.40;;;;;;4918180;29;20163;-79
2021/09/16 07:53:34;;;;;;;2.20;2.00;;;18.90;53.40;;;;;;4918939;29;20159;-79
2021/09/16 07:56:00;;;;;;;2.20;2.00;;;18.90;54.10;;;;;;4902019;29;20159;-79
2021/09/16 07:58:26;;;;;;;2.15;1.80;;;18.90;53.50;;;;;;4901398;29;20166;-80
2021/09/16 08:00:51;;;;;;;2.35;2.10;;;19.00;53.50;;;;;;4919043;29;20186;-80
2021/09/16 08:03:18;;;;;;;2.22;2.00;;;18.90;53.50;;;;;;4901251;29;20525;-79
2021/09/16 08:05:44;;;;;;;2.05;1.80;;;18.90;53.50;;;;;;4918167;29;20209;-80
2021/09/16 08:08:09;;;;;;;2.63;2.03;;;19.00;53.50;;;;;;4918447;29;20666;-80
2021/09/16 08:10:35;;;;;;;2.50;2.03;;;19.00;53.50;;;;;;4917793;29;20174;-79
2021/09/16 08:13:01;;;;;;;2.63;2.20;;;19.00;53.70;;;;;;4901026;29;20186;-79
2021/09/16 08:15:27;;;;;;;2.15;1.95;;;19.00;53.70;;;;;;4918880;29;20155;-79
2021/09/16 08:17:53;;;;;;;2.15;1.95;;;19.00;53.80;;;;;;4919752;29;20234;-80
2021/09/16 08:20:18;;;;;;;2.38;2.15;;;19.00;53.70;;;;;;4917711;29;20524;-79
2021/09/16 08:22:45;;;;;;;2.40;2.20;;;19.00;53.70;;;;;;4918423;29;20163;-79
2021/09/16 08:25:11;;;;;;;2.38;2.08;;;19.00;53.70;;;;;;4905340;29;20162;-79
2021/09/16 08:27:37;;;;;;;2.15;1.95;;;18.90;53.80;;;;;;4922857;29;20191;-80
2021/09/16 08:30:04;;;;;;;2.25;2.03;;;19.00;53.90;;;;;;4888706;29;20197;-80
2021/09/16 08:32:30;;;;;;;2.20;2.00;;;18.90;53.90;;;;;;4904486;29;20222;-81
2021/09/16 08:34:55;;;;;;;2.75;2.35;;;18.90;53.90;;;;;;4921977;29;20617;-80
2021/09/16 08:37:21;;;;;;;2.40;2.20;;;18.90;53.90;;;;;;4920942;29;20167;-80
2021/09/16 08:39:47;;;;;;;2.13;1.92;;;19.00;53.90;;;;;;4888140;29;20608;-80
2021/09/16 08:42:13;;;;;;;2.20;2.00;;;19.00;54.00;;;;;;4903635;29;20175;-80
2021/09/16 08:44:40;;;;;;;2.42;2.22;;;19.00;53.90;;;;;;4898524;29;20179;-79
2021/09/16 08:47:06;;;;;;;2.30;2.10;;;19.00;53.70;;;;;;4901860;29;20231;-80
2021/09/16 08:49:32;;;;;;;2.13;1.92;;;19.00;53.70;;;;;;4920196;29;20269;-79
2021/09/16 08:51:58;;;;;;;2.25;1.77;;;19.00;53.50;;;;;;4903726;29;20195;-79
2021/09/16 08:54:23;;;;;;;2.33;1.90;;;19.00;53.60;;;;;;4922643;29;20536;-80
2021/09/16 08:56:49;;;;;;;2.25;2.05;;;19.00;53.40;;;;;;4904587;29;20221;-80
2021/09/16 08:59:15;;;;;;;2.00;1.80;;;19.00;53.50;;;;;;4889620;29;20386;-80
2021/09/16 09:01:42;;;;;;;2.40;2.00;;;19.00;53.50;;;;;;4904316;29;20167;-80
2021/09/16 09:04:08;;;;;;;2.33;2.08;;;19.00;53.20;;;;;;4904811;29;20190;-80
2021/09/16 09:06:38;;;;;;;2.30;2.10;;;19.00;53.20;;;;;;4889258;29;20175;-80
2021/09/16 09:09:15;;;;;;;2.80;1.90;;;19.00;53.20;;;;;;4903657;29;20174;-80
2021/09/16 09:11:51;;;;;;;2.85;2.08;;;19.00;53.20;;;;;;4904040;29;20214;-80
2021/09/16 09:14:19;;;;;;;2.17;1.98;;;19.10;53.20;;;;;;4904491;29;20173;-80
2021/09/16 09:16:45;;;;;;;2.42;2.22;;;19.00;53.20;;;;;;4905964;29;20159;-80
2021/09/16 09:19:16;;;;;;;2.28;1.90;;;19.00;53.10;;;;;;4890586;29;20171;-79
2021/09/16 09:21:42;;;;;;;2.20;2.00;;;19.00;53.20;;;;;;4891168;29;20181;-80
2021/09/16 09:24:07;;;;;;;2.22;2.03;;;19.00;53.20;;;;;;4906610;29;20182;-80
2021/09/16 09:26:35;;;;;;;2.17;1.98;;;18.90;52.90;;;;;;4905992;29;20194;-80
2021/09/16 09:29:14;;;;;;;2.13;1.92;;;19.00;52.80;;;;;;4906858;29;20165;-79
2021/09/16 09:31:42;;;;;;;2.22;2.03;;;19.00;52.90;;;;;;4905994;29;20159;-79
2021/09/16 09:34:25;;;;;;;3.03;2.00;;;19.00;52.90;;;;;;4922886;29;20150;-79
2021/09/16 09:36:51;;;;;;;2.40;2.10;;;19.00;52.70;;;;;;4906897;29;20159;-79
2021/09/16 09:39:24;;;;;;;2.15;1.95;;;19.00;52.80;;;;;;4906096;29;20174;-79
2021/09/16 09:41:50;;;;;;;2.28;2.08;;;19.00;52.60;;;;;;4889932;29;20178;-79
2021/09/16 09:44:16;;;;;;;2.30;2.10;;;19.00;52.40;;;;;;4903937;29;20167;-79
2021/09/16 09:46:48;;;;;;;2.30;2.10;;;19.00;52.40;;;;;;4903875;29;20230;-79
2021/09/16 09:49:17;;;;;;;2.28;2.08;;;19.00;52.50;;;;;;4920138;29;20547;-79
2021/09/16 09:51:48;;;;;;;2.17;1.98;;;19.00;52.50;;;;;;4920673;29;20174;-80
2021/09/16 09:54:34;;;;;;;2.17;1.92;;;19.00;52.40;;;;;;4888112;29;20205;-80
2021/09/16 09:57:15;;;;;;;3.53;2.20;;;19.00;52.50;;;;;;4903575;29;20536;-80
2021/09/16 10:00:07;;;;;;;2.38;2.17;;;19.00;52.40;;;;;;4921007;29;20648;-80
2021/09/16 10:02:55;;;;;;;2.47;2.13;;;19.00;52.50;;;;;;4920597;29;20496;-80
2021/09/16 10:05:31;;;;;;;2.30;2.10;;;19.00;52.40;;;;;;4921133;29;20211;-80
2021/09/16 10:08:18;;;;;;;2.40;2.15;;;19.00;52.10;;;;;;4903593;29;20190;-80
2021/09/16 10:10:48;;;;;;;2.65;2.38;;;19.00;51.90;;;;;;4905154;29;20179;-80
2021/09/16 10:13:20;;;;;;;2.40;2.20;;;19.10;52.20;;;;;;4902732;29;20166;-80
2021/09/16 10:15:47;;;;;;;2.33;2.13;;;19.00;52.20;;;;;;4919331;29;20219;-80
2021/09/16 10:18:13;;;;;;;2.15;1.90;;;19.10;52.30;;;;;;4902406;29;20231;-79
2021/09/16 10:20:38;;;;;;;2.72;2.28;;;19.10;52.10;;;;;;4919309;29;20159;-80
2021/09/16 10:23:07;;;;;;;2.67;2.40;;;19.00;52.00;;;;;;4902988;29;20222;-80
2021/09/16 10:25:33;;;;;;;2.55;2.08;;;19.00;51.90;;;;;;4902779;29;20159;-80
2021/09/16 10:28:02;;;;;;;2.35;2.15;;;19.00;51.90;;;;;;4919755;29;20277;-80
2021/09/16 10:30:30;;;;;;;2.25;2.05;;;19.00;51.90;;;;;;4919938;29;20171;-80
2021/09/16 10:33:29;;;;;;;2.17;1.98;;;19.00;51.90;;;;;;4886947;29;20186;-80
2021/09/16 10:39:56;;;;;;;2.40;1.80;;;19.10;51.30;;;;;;4920170;29;20185;-80
2021/09/16 10:42:46;;;;;;;3.70;2.45;;;19.10;51.30;;;;;;4903032;29;20175;-80
2021/09/16 10:45:12;;;;;;;2.53;2.13;;;19.10;51.60;;;;;;4920242;29;20191;-80
2021/09/16 10:47:38;;;;;;;3.60;2.03;;;19.10;51.40;;;;;;4919454;29;20222;-80
2021/09/16 10:50:24;;;;;;;2.63;2.20;;;19.10;51.30;;;;;;4919606;29;20230;-80
2021/09/16 10:52:53;;;;;;;3.00;2.30;;;19.10;51.30;;;;;;4919962;29;20181;-80
2021/09/16 10:55:37;;;;;;;2.92;2.30;;;19.10;51.40;;;;;;4921402;29;20156;-79
2021/09/16 10:58:22;;;;;;;2.25;1.70;;;19.10;51.20;;;;;;4904470;29;20515;-80
2021/09/16 11:00:48;;;;;;;2.97;2.20;;;19.10;51.20;;;;;;4920800;29;20163;-79
2021/09/16 11:03:16;;;;;;;3.70;2.08;;;19.10;51.40;;;;;;4921066;29;20185;-79
2021/09/16 11:05:46;;;;;;;2.35;2.15;;;19.10;51.10;;;;;;4921099;29;20160;-79
2021/09/16 11:08:12;;;;;;;4.60;2.30;;;19.10;51.20;;;;;;4903848;29;20222;-79
2021/09/16 11:10:57;;;;;;;4.15;2.15;;;19.10;51.20;;;;;;4904030;29;20194;-80
2021/09/16 11:13:33;;;;;;;4.78;2.20;;;19.10;51.20;;;;;;4921011;29;20242;-79
2021/09/16 11:15:59;;;;;;;3.67;2.28;;;19.10;51.10;;;;;;4903067;29;20162;-79
2021/09/16 11:18:26;;;;;;;2.80;2.20;;;19.10;50.80;;;;;;4920832;29;20189;-79
2021/09/16 11:20:57;;;;;;;4.28;2.60;;;19.20;51.00;;;;;;4887640;29;20179;-79
2021/09/16 11:23:33;;;;;;;4.43;2.08;;;19.20;50.90;;;;;;4905322;29;20589;-80
2021/09/16 11:25:58;;;;;;;2.38;2.17;;;19.20;51.00;;;;;;4890028;29;20196;-80
2021/09/16 11:28:24;;;;;;;3.90;2.50;;;19.20;50.80;;;;;;4902772;29;20210;-80
2021/09/16 11:30:50;;;;;;;4.20;2.10;;;19.20;50.80;;;;;;4890682;29;20193;-80
2021/09/16 11:33:17;;;;;;;3.13;2.20;;;19.20;50.70;;;;;;4903893;29;20234;-79
2021/09/16 11:35:43;;;;;;;2.85;2.20;;;19.20;50.70;;;;;;4901795;29;20182;-80
2021/09/16 11:38:09;;;;;;;4.35;2.17;;;19.20;50.90;;;;;;4901566;29;20672;-80
2021/09/16 11:40:36;;;;;;;3.53;2.15;;;19.20;50.80;;;;;;4885315;29;20224;-79
2021/09/16 11:43:24;;;;;;;3.63;2.10;;;19.20;50.70;;;;;;4902078;29;20200;-80
2021/09/16 11:45:50;;;;;;;3.80;2.05;;;19.20;50.50;;;;;;4903998;29;20187;-80
2021/09/16 11:48:17;;;;;;;2.28;2.00;;;19.20;50.40;;;;;;4904215;29;20257;-81
2021/09/16 11:51:03;;;;;;;4.28;2.20;;;19.30;50.10;;;;;;4904784;29;20183;-81
2021/09/16 11:53:34;;;;;;;4.35;2.20;;;19.30;50.10;;;;;;4874740;29;20179;-80
2021/09/16 11:56:02;;;;;;;2.45;1.77;;;19.30;50.00;;;;;;4874340;29;20184;-80
2021/09/16 11:58:32;;;;;;;3.08;2.47;;;19.30;50.20;;;;;;4888642;29;20227;-80
2021/09/16 12:01:04;;;;;;;2.45;2.17;;;19.30;50.30;;;;;;4905238;29;20580;-81
2021/09/16 12:03:32;;;;;;;4.07;1.75;;;19.40;50.40;;;;;;4900723;29;20239;-80
2021/09/16 12:06:06;;;;;;;5.47;2.33;;;19.40;50.10;;;;;;4902734;29;20195;-80
2021/09/16 12:08:35;;;;;;;4.18;2.13;;;19.50;49.90;;;;;;4884038;29;20785;-81
2021/09/16 12:11:04;;;;;;;2.35;2.13;;;19.50;49.70;;;;;;4898708;29;20196;-80
2021/09/16 12:13:35;;;;;;;4.38;2.33;;;19.50;49.50;;;;;;4898594;29;20159;-80
2021/09/16 12:16:09;;;;;;;6.15;2.30;;;19.40;50.20;;;;;;4887527;29;20191;-82
2021/09/16 12:18:35;;;;;;;2.85;2.00;;;19.40;50.50;;;;;;4899198;29;20312;-82
2021/09/16 12:21:02;;;;;;;4.15;2.45;;;19.50;50.30;;;;;;4902745;29;20194;-83
2021/09/16 12:23:28;;;;;;;4.95;2.28;;;19.50;50.80;;;;;;4904336;29;20257;-82
2021/09/16 12:25:58;;;;;;;2.42;2.05;;;19.40;50.40;;;;;;4901813;29;20159;-81
2021/09/16 12:28:24;;;;;;;4.45;2.30;;;19.40;50.40;;;;;;4885310;29;20198;-80
2021/09/16 12:30:50;;;;;;;2.50;2.20;;;19.40;50.30;;;;;;4899163;29;20159;-83
2021/09/16 12:33:58;;;;;;;5.70;2.40;;;19.40;50.50;;;;;;4901046;29;20622;-83
2021/09/16 12:36:24;;;;;;;2.40;2.05;;;19.40;50.50;;;;;;4821605;29;20190;-84
2021/09/16 12:38:55;;;;;;;3.85;2.17;;;19.40;50.60;;;;;;4823447;29;20624;-85
2021/09/16 12:41:31;;;;;;;4.25;2.00;;;19.40;50.40;;;;;;4836302;29;20217;-82
2021/09/16 12:43:59;;;;;;;3.10;2.05;;;19.40;50.20;;;;;;4820937;29;20249;-83
2021/09/16 12:46:25;;;;;;;2.47;2.00;;;19.40;50.40;;;;;;4824019;29;20278;-81
2021/09/16 12:48:51;;;;;;;4.10;2.15;;;19.40;50.10;;;;;;4812465;29;20587;-81
2021/09/16 12:51:19;;;;;;;3.90;2.00;;;19.50;50.60;;;;;;4856145;29;20209;-82
2021/09/16 12:53:45;;;;;;;2.30;2.10;;;19.40;50.50;;;;;;4841938;29;20541;-81